sensor_id;sensor_type;location;lat;lon;timestamp;P1;durP1;ratioP1;P2;durP2;ratioP2
28627;SDS011;15815;46.760;19.604;2022-11-18T00:02:03;134.82;;;41.28;;
28627;SDS011;15815;46.760;19.604;2022-11-18T00:04:29;143.77;;;41.80;;
28627;SDS011;15815;46.760;19.604;2022-11-18T00:06:54;159.45;;;39.65;;
28627;SDS011;15815;46.760;19.604;2022-11-18T00:09:19;256.38;;;38.33;;
28627;SDS011;15815;46.760;19.604;2022-11-18T00:11:45;192.30;;;41.55;;
28627;SDS011;15815;46.760;19.604;2022-11-18T00:14:29;355.50;;;42.55;;
28627;SDS011;15815;46.760;19.604;2022-11-18T00:16:55;343.27;;;52.17;;
28627;SDS011;15815;46.760;19.604;2022-11-18T00:19:29;363.20;;;44.87;;
28627;SDS011;15815;46.760;19.604;2022-11-18T00:21:55;354.15;;;42.08;;
28627;SDS011;15815;46.760;19.604;2022-11-18T00:24:21;389.00;;;44.03;;
28627;SDS011;15815;46.760;19.604;2022-11-18T00:26:47;310.65;;;40.67;;
28627;SDS011;15815;46.760;19.604;2022-11-18T00:29:13;473.73;;;48.53;;
28627;SDS011;15815;46.760;19.604;2022-11-18T00:31:41;320.23;;;37.97;;
28627;SDS011;15815;46.760;19.604;2022-11-18T00:34:09;481.33;;;44.22;;
28627;SDS011;15815;46.760;19.604;2022-11-18T00:36:35;425.23;;;40.53;;
28627;SDS011;15815;46.760;19.604;2022-11-18T00:39:01;232.85;;;35.67;;
28627;SDS011;15815;46.760;19.604;2022-11-18T00:41:26;272.55;;;38.17;;
28627;SDS011;15815;46.760;19.604;2022-11-18T00:44:11;417.05;;;43.13;;
28627;SDS011;15815;46.760;19.604;2022-11-18T00:46:37;312.20;;;39.63;;
28627;SDS011;15815;46.760;19.604;2022-11-18T00:49:02;193.73;;;35.83;;
28627;SDS011;15815;46.760;19.604;2022-11-18T00:51:27;290.92;;;39.45;;
28627;SDS011;15815;46.760;19.604;2022-11-18T00:53:52;358.27;;;42.38;;
28627;SDS011;15815;46.760;19.604;2022-11-18T00:56:18;268.85;;;38.50;;
28627;SDS011;15815;46.760;19.604;2022-11-18T00:58:44;254.30;;;37.28;;
28627;SDS011;15815;46.760;19.604;2022-11-18T01:01:09;240.05;;;39.13;;
28627;SDS011;15815;46.760;19.604;2022-11-18T01:03:34;289.10;;;44.67;;
28627;SDS011;15815;46.760;19.604;2022-11-18T01:05:59;200.95;;;50.00;;
28627;SDS011;15815;46.760;19.604;2022-11-18T01:08:25;233.73;;;59.00;;
28627;SDS011;15815;46.760;19.604;2022-11-18T01:10:50;224.15;;;48.95;;
28627;SDS011;15815;46.760;19.604;2022-11-18T01:13:17;153.98;;;43.15;;
28627;SDS011;15815;46.760;19.604;2022-11-18T01:15:45;191.55;;;41.28;;
28627;SDS011;15815;46.760;19.604;2022-11-18T01:18:16;170.77;;;39.42;;
28627;SDS011;15815;46.760;19.604;2022-11-18T01:20:43;180.02;;;37.22;;
28627;SDS011;15815;46.760;19.604;2022-11-18T01:23:09;138.38;;;41.13;;
28627;SDS011;15815;46.760;19.604;2022-11-18T01:25:35;180.35;;;48.10;;
28627;SDS011;15815;46.760;19.604;2022-11-18T01:28:02;148.10;;;50.53;;
28627;SDS011;15815;46.760;19.604;2022-11-18T01:30:28;189.20;;;49.50;;
28627;SDS011;15815;46.760;19.604;2022-11-18T01:32:54;173.60;;;44.92;;
28627;SDS011;15815;46.760;19.604;2022-11-18T01:35:19;187.02;;;40.58;;
28627;SDS011;15815;46.760;19.604;2022-11-18T01:37:44;176.90;;;44.13;;
28627;SDS011;15815;46.760;19.604;2022-11-18T01:40:10;90.53;;;36.80;;
28627;SDS011;15815;46.760;19.604;2022-11-18T01:42:35;66.15;;;37.13;;
28627;SDS011;15815;46.760;19.604;2022-11-18T01:45:09;62.85;;;34.72;;
28627;SDS011;15815;46.760;19.604;2022-11-18T01:48:01;57.30;;;33.03;;
28627;SDS011;15815;46.760;19.604;2022-11-18T01:50:40;52.08;;;31.23;;
28627;SDS011;15815;46.760;19.604;2022-11-18T01:53:11;53.35;;;32.40;;
28627;SDS011;15815;46.760;19.604;2022-11-18T01:55:42;56.85;;;35.53;;
28627;SDS011;15815;46.760;19.604;2022-11-18T01:58:11;51.70;;;32.75;;
28627;SDS011;15815;46.760;19.604;2022-11-18T02:00:44;49.17;;;31.35;;
28627;SDS011;15815;46.760;19.604;2022-11-18T02:03:10;52.97;;;34.25;;
28627;SDS011;15815;46.760;19.604;2022-11-18T02:05:36;52.20;;;33.75;;
28627;SDS011;15815;46.760;19.604;2022-11-18T02:08:02;49.42;;;31.58;;
28627;SDS011;15815;46.760;19.604;2022-11-18T02:10:30;50.70;;;32.05;;
28627;SDS011;15815;46.760;19.604;2022-11-18T02:12:59;48.05;;;30.50;;
28627;SDS011;15815;46.760;19.604;2022-11-18T02:15:33;47.67;;;31.52;;
28627;SDS011;15815;46.760;19.604;2022-11-18T02:18:36;42.38;;;28.92;;
28627;SDS011;15815;46.760;19.604;2022-11-18T02:26:41;49.00;;;31.92;;
28627;SDS011;15815;46.760;19.604;2022-11-18T02:37:35;51.25;;;32.60;;
28627;SDS011;15815;46.760;19.604;2022-11-18T02:40:15;59.10;;;32.72;;
28627;SDS011;15815;46.760;19.604;2022-11-18T02:43:09;49.90;;;31.80;;
28627;SDS011;15815;46.760;19.604;2022-11-18T02:45:51;54.75;;;32.60;;
28627;SDS011;15815;46.760;19.604;2022-11-18T02:48:21;399.17;;;41.25;;
28627;SDS011;15815;46.760;19.604;2022-11-18T02:50:49;695.30;;;50.47;;
28627;SDS011;15815;46.760;19.604;2022-11-18T02:53:18;161.50;;;34.28;;
28627;SDS011;15815;46.760;19.604;2022-11-18T02:55:45;219.20;;;37.03;;
28627;SDS011;15815;46.760;19.604;2022-11-18T02:58:12;294.08;;;35.72;;
28627;SDS011;15815;46.760;19.604;2022-11-18T03:00:41;103.43;;;33.72;;
28627;SDS011;15815;46.760;19.604;2022-11-18T03:03:22;607.15;;;46.53;;
28627;SDS011;15815;46.760;19.604;2022-11-18T03:06:02;532.97;;;43.60;;
28627;SDS011;15815;46.760;19.604;2022-11-18T03:08:48;260.45;;;39.63;;
28627;SDS011;15815;46.760;19.604;2022-11-18T03:11:22;360.55;;;37.55;;
28627;SDS011;15815;46.760;19.604;2022-11-18T03:16:37;534.45;;;43.83;;
28627;SDS011;15815;46.760;19.604;2022-11-18T03:22:08;381.02;;;42.00;;
28627;SDS011;15815;46.760;19.604;2022-11-18T03:27:19;311.23;;;42.50;;
28627;SDS011;15815;46.760;19.604;2022-11-18T03:29:53;267.63;;;34.50;;
28627;SDS011;15815;46.760;19.604;2022-11-18T03:32:26;334.75;;;38.47;;
28627;SDS011;15815;46.760;19.604;2022-11-18T03:35:04;359.67;;;40.60;;
28627;SDS011;15815;46.760;19.604;2022-11-18T03:37:35;418.95;;;36.53;;
28627;SDS011;15815;46.760;19.604;2022-11-18T03:40:10;355.48;;;36.72;;
28627;SDS011;15815;46.760;19.604;2022-11-18T03:42:44;271.08;;;34.67;;
28627;SDS011;15815;46.760;19.604;2022-11-18T03:45:15;279.63;;;35.22;;
28627;SDS011;15815;46.760;19.604;2022-11-18T03:47:58;328.95;;;36.95;;
28627;SDS011;15815;46.760;19.604;2022-11-18T03:50:31;273.30;;;34.97;;
28627;SDS011;15815;46.760;19.604;2022-11-18T03:53:00;192.55;;;37.63;;
28627;SDS011;15815;46.760;19.604;2022-11-18T03:55:28;159.75;;;33.15;;
28627;SDS011;15815;46.760;19.604;2022-11-18T04:00:37;363.17;;;37.63;;
28627;SDS011;15815;46.760;19.604;2022-11-18T04:03:07;283.63;;;32.78;;
28627;SDS011;15815;46.760;19.604;2022-11-18T04:05:35;305.75;;;32.50;;
28627;SDS011;15815;46.760;19.604;2022-11-18T04:08:04;157.98;;;30.20;;
28627;SDS011;15815;46.760;19.604;2022-11-18T04:10:58;244.50;;;31.33;;
28627;SDS011;15815;46.760;19.604;2022-11-18T04:13:27;427.75;;;35.95;;
28627;SDS011;15815;46.760;19.604;2022-11-18T04:15:59;303.30;;;32.42;;
28627;SDS011;15815;46.760;19.604;2022-11-18T04:18:25;379.77;;;32.55;;
28627;SDS011;15815;46.760;19.604;2022-11-18T04:20:51;300.90;;;31.48;;
28627;SDS011;15815;46.760;19.604;2022-11-18T04:23:16;158.85;;;33.58;;
28627;SDS011;15815;46.760;19.604;2022-11-18T04:25:44;618.90;;;40.38;;
28627;SDS011;15815;46.760;19.604;2022-11-18T04:28:09;432.63;;;38.75;;
28627;SDS011;15815;46.760;19.604;2022-11-18T04:30:35;325.98;;;30.17;;
28627;SDS011;15815;46.760;19.604;2022-11-18T04:33:02;252.25;;;30.33;;
28627;SDS011;15815;46.760;19.604;2022-11-18T04:35:29;389.13;;;36.17;;
28627;SDS011;15815;46.760;19.604;2022-11-18T04:37:54;441.75;;;39.78;;
28627;SDS011;15815;46.760;19.604;2022-11-18T04:40:19;395.40;;;35.88;;
28627;SDS011;15815;46.760;19.604;2022-11-18T04:42:46;445.95;;;36.30;;
28627;SDS011;15815;46.760;19.604;2022-11-18T04:45:11;354.30;;;30.20;;
28627;SDS011;15815;46.760;19.604;2022-11-18T04:47:37;318.92;;;33.63;;
28627;SDS011;15815;46.760;19.604;2022-11-18T04:50:05;195.88;;;30.33;;
28627;SDS011;15815;46.760;19.604;2022-11-18T04:52:32;183.73;;;29.02;;
28627;SDS011;15815;46.760;19.604;2022-11-18T04:54:57;133.40;;;26.23;;
28627;SDS011;15815;46.760;19.604;2022-11-18T04:57:23;272.52;;;33.08;;
28627;SDS011;15815;46.760;19.604;2022-11-18T04:59:48;206.10;;;31.38;;
28627;SDS011;15815;46.760;19.604;2022-11-18T05:02:13;239.48;;;29.30;;
28627;SDS011;15815;46.760;19.604;2022-11-18T05:04:38;140.30;;;25.52;;
28627;SDS011;15815;46.760;19.604;2022-11-18T05:07:04;220.80;;;29.75;;
28627;SDS011;15815;46.760;19.604;2022-11-18T05:09:30;267.40;;;30.52;;
28627;SDS011;15815;46.760;19.604;2022-11-18T05:11:55;134.13;;;27.90;;
28627;SDS011;15815;46.760;19.604;2022-11-18T05:14:39;98.15;;;29.50;;
28627;SDS011;15815;46.760;19.604;2022-11-18T05:17:06;185.43;;;29.33;;
28627;SDS011;15815;46.760;19.604;2022-11-18T05:19:36;146.68;;;28.50;;
28627;SDS011;15815;46.760;19.604;2022-11-18T05:22:02;205.50;;;31.38;;
28627;SDS011;15815;46.760;19.604;2022-11-18T05:24:27;139.52;;;28.45;;
28627;SDS011;15815;46.760;19.604;2022-11-18T05:26:53;156.15;;;29.88;;
28627;SDS011;15815;46.760;19.604;2022-11-18T05:29:19;141.98;;;27.88;;
28627;SDS011;15815;46.760;19.604;2022-11-18T05:31:45;244.80;;;32.90;;
28627;SDS011;15815;46.760;19.604;2022-11-18T05:34:11;140.10;;;30.05;;
28627;SDS011;15815;46.760;19.604;2022-11-18T05:36:38;181.77;;;31.10;;
28627;SDS011;15815;46.760;19.604;2022-11-18T05:39:04;149.45;;;28.98;;
28627;SDS011;15815;46.760;19.604;2022-11-18T05:41:30;161.63;;;29.88;;
28627;SDS011;15815;46.760;19.604;2022-11-18T05:44:14;115.60;;;29.02;;
28627;SDS011;15815;46.760;19.604;2022-11-18T05:46:40;158.98;;;30.60;;
28627;SDS011;15815;46.760;19.604;2022-11-18T05:49:05;121.63;;;31.42;;
28627;SDS011;15815;46.760;19.604;2022-11-18T05:51:31;114.03;;;29.02;;
28627;SDS011;15815;46.760;19.604;2022-11-18T05:53:57;128.90;;;31.25;;
28627;SDS011;15815;46.760;19.604;2022-11-18T05:56:24;148.30;;;29.65;;
28627;SDS011;15815;46.760;19.604;2022-11-18T05:58:55;118.70;;;28.15;;
28627;SDS011;15815;46.760;19.604;2022-11-18T06:01:21;122.78;;;28.88;;
28627;SDS011;15815;46.760;19.604;2022-11-18T06:03:50;109.70;;;27.92;;
28627;SDS011;15815;46.760;19.604;2022-11-18T06:06:16;71.80;;;26.27;;
28627;SDS011;15815;46.760;19.604;2022-11-18T06:08:50;130.88;;;29.45;;
28627;SDS011;15815;46.760;19.604;2022-11-18T06:11:25;65.90;;;27.48;;
28627;SDS011;15815;46.760;19.604;2022-11-18T06:14:02;70.90;;;26.60;;
28627;SDS011;15815;46.760;19.604;2022-11-18T06:19:02;78.40;;;37.60;;
28627;SDS011;15815;46.760;19.604;2022-11-18T06:21:28;129.88;;;42.83;;
28627;SDS011;15815;46.760;19.604;2022-11-18T06:23:54;79.75;;;36.35;;
28627;SDS011;15815;46.760;19.604;2022-11-18T06:26:20;75.15;;;36.08;;
28627;SDS011;15815;46.760;19.604;2022-11-18T06:28:45;77.50;;;37.55;;
28627;SDS011;15815;46.760;19.604;2022-11-18T06:31:12;61.17;;;32.03;;
28627;SDS011;15815;46.760;19.604;2022-11-18T06:33:38;77.53;;;41.28;;
28627;SDS011;15815;46.760;19.604;2022-11-18T06:36:03;70.70;;;34.92;;
28627;SDS011;15815;46.760;19.604;2022-11-18T06:38:29;54.97;;;31.42;;
28627;SDS011;15815;46.760;19.604;2022-11-18T06:40:59;45.58;;;27.38;;
28627;SDS011;15815;46.760;19.604;2022-11-18T06:43:25;49.30;;;29.63;;
28627;SDS011;15815;46.760;19.604;2022-11-18T06:46:03;39.63;;;26.13;;
28627;SDS011;15815;46.760;19.604;2022-11-18T06:48:48;40.08;;;26.40;;
28627;SDS011;15815;46.760;19.604;2022-11-18T06:51:14;42.85;;;27.13;;
28627;SDS011;15815;46.760;19.604;2022-11-18T06:53:46;45.38;;;30.77;;
28627;SDS011;15815;46.760;19.604;2022-11-18T06:58:37;45.55;;;27.45;;
28627;SDS011;15815;46.760;19.604;2022-11-18T07:03:45;46.30;;;27.98;;
28627;SDS011;15815;46.760;19.604;2022-11-18T07:06:12;48.38;;;28.25;;
28627;SDS011;15815;46.760;19.604;2022-11-18T07:08:39;50.08;;;29.50;;
28627;SDS011;15815;46.760;19.604;2022-11-18T07:11:06;64.47;;;32.92;;
28627;SDS011;15815;46.760;19.604;2022-11-18T07:13:34;65.15;;;33.38;;
28627;SDS011;15815;46.760;19.604;2022-11-18T07:16:04;71.82;;;39.85;;
28627;SDS011;15815;46.760;19.604;2022-11-18T07:18:32;98.07;;;33.45;;
28627;SDS011;15815;46.760;19.604;2022-11-18T07:21:02;69.50;;;36.65;;
28627;SDS011;15815;46.760;19.604;2022-11-18T07:23:32;85.82;;;35.75;;
28627;SDS011;15815;46.760;19.604;2022-11-18T07:28:26;90.25;;;31.95;;
28627;SDS011;15815;46.760;19.604;2022-11-18T07:30:58;62.63;;;32.50;;
28627;SDS011;15815;46.760;19.604;2022-11-18T07:33:25;68.60;;;30.52;;
28627;SDS011;15815;46.760;19.604;2022-11-18T07:35:50;119.50;;;31.63;;
28627;SDS011;15815;46.760;19.604;2022-11-18T07:38:15;100.80;;;31.70;;
28627;SDS011;15815;46.760;19.604;2022-11-18T07:40:41;163.27;;;34.83;;
28627;SDS011;15815;46.760;19.604;2022-11-18T07:43:06;147.60;;;34.30;;
28627;SDS011;15815;46.760;19.604;2022-11-18T07:45:32;159.98;;;33.90;;
28627;SDS011;15815;46.760;19.604;2022-11-18T07:47:57;185.15;;;36.33;;
28627;SDS011;15815;46.760;19.604;2022-11-18T07:50:22;220.07;;;36.28;;
28627;SDS011;15815;46.760;19.604;2022-11-18T07:52:48;241.93;;;38.30;;
28627;SDS011;15815;46.760;19.604;2022-11-18T07:55:13;188.70;;;36.65;;
28627;SDS011;15815;46.760;19.604;2022-11-18T07:57:38;164.10;;;37.03;;
28627;SDS011;15815;46.760;19.604;2022-11-18T08:00:04;132.30;;;35.53;;
28627;SDS011;15815;46.760;19.604;2022-11-18T08:02:33;95.03;;;32.78;;
28627;SDS011;15815;46.760;19.604;2022-11-18T08:04:58;72.30;;;31.48;;
28627;SDS011;15815;46.760;19.604;2022-11-18T08:07:23;59.78;;;29.00;;
28627;SDS011;15815;46.760;19.604;2022-11-18T08:09:49;60.42;;;26.83;;
28627;SDS011;15815;46.760;19.604;2022-11-18T08:12:14;51.65;;;27.98;;
28627;SDS011;15815;46.760;19.604;2022-11-18T08:14:39;52.83;;;27.70;;
28627;SDS011;15815;46.760;19.604;2022-11-18T08:17:05;68.43;;;30.98;;
28627;SDS011;15815;46.760;19.604;2022-11-18T08:19:32;76.85;;;34.20;;
28627;SDS011;15815;46.760;19.604;2022-11-18T08:22:01;64.97;;;33.85;;
28627;SDS011;15815;46.760;19.604;2022-11-18T08:24:26;71.32;;;31.02;;
28627;SDS011;15815;46.760;19.604;2022-11-18T08:26:51;94.45;;;36.70;;
28627;SDS011;15815;46.760;19.604;2022-11-18T08:29:17;69.57;;;32.83;;
28627;SDS011;15815;46.760;19.604;2022-11-18T08:31:42;72.32;;;33.50;;
28627;SDS011;15815;46.760;19.604;2022-11-18T08:34:07;51.42;;;26.77;;
28627;SDS011;15815;46.760;19.604;2022-11-18T08:36:39;51.22;;;26.40;;
28627;SDS011;15815;46.760;19.604;2022-11-18T08:39:05;48.70;;;25.58;;
28627;SDS011;15815;46.760;19.604;2022-11-18T08:41:34;44.92;;;22.35;;
28627;SDS011;15815;46.760;19.604;2022-11-18T08:44:02;47.65;;;23.73;;
28627;SDS011;15815;46.760;19.604;2022-11-18T08:46:29;48.88;;;24.40;;
28627;SDS011;15815;46.760;19.604;2022-11-18T08:48:55;50.55;;;24.05;;
28627;SDS011;15815;46.760;19.604;2022-11-18T08:51:20;41.25;;;23.45;;
28627;SDS011;15815;46.760;19.604;2022-11-18T08:53:46;41.85;;;21.45;;
28627;SDS011;15815;46.760;19.604;2022-11-18T08:56:11;40.13;;;21.30;;
28627;SDS011;15815;46.760;19.604;2022-11-18T08:58:40;39.53;;;22.27;;
28627;SDS011;15815;46.760;19.604;2022-11-18T09:01:06;38.55;;;21.90;;
28627;SDS011;15815;46.760;19.604;2022-11-18T09:03:32;40.55;;;22.23;;
28627;SDS011;15815;46.760;19.604;2022-11-18T09:06:05;37.17;;;21.77;;
28627;SDS011;15815;46.760;19.604;2022-11-18T09:08:31;39.42;;;23.20;;
28627;SDS011;15815;46.760;19.604;2022-11-18T09:10:57;38.08;;;22.42;;
28627;SDS011;15815;46.760;19.604;2022-11-18T09:13:22;44.03;;;22.95;;
28627;SDS011;15815;46.760;19.604;2022-11-18T09:15:47;38.45;;;22.50;;
28627;SDS011;15815;46.760;19.604;2022-11-18T09:18:13;36.25;;;22.15;;
28627;SDS011;15815;46.760;19.604;2022-11-18T09:20:38;32.20;;;19.27;;
28627;SDS011;15815;46.760;19.604;2022-11-18T09:23:03;29.42;;;17.83;;
28627;SDS011;15815;46.760;19.604;2022-11-18T09:25:29;31.48;;;18.75;;
28627;SDS011;15815;46.760;19.604;2022-11-18T09:27:55;32.42;;;19.73;;
28627;SDS011;15815;46.760;19.604;2022-11-18T09:30:20;31.30;;;19.30;;
28627;SDS011;15815;46.760;19.604;2022-11-18T09:32:46;28.95;;;17.48;;
28627;SDS011;15815;46.760;19.604;2022-11-18T09:35:12;28.88;;;18.60;;
28627;SDS011;15815;46.760;19.604;2022-11-18T09:37:38;28.17;;;18.20;;
28627;SDS011;15815;46.760;19.604;2022-11-18T09:40:03;29.70;;;20.58;;
28627;SDS011;15815;46.760;19.604;2022-11-18T09:45:07;27.65;;;18.92;;
28627;SDS011;15815;46.760;19.604;2022-11-18T09:47:57;26.67;;;17.83;;
28627;SDS011;15815;46.760;19.604;2022-11-18T09:50:34;26.65;;;17.27;;
28627;SDS011;15815;46.760;19.604;2022-11-18T09:55:33;31.65;;;19.15;;
28627;SDS011;15815;46.760;19.604;2022-11-18T09:58:05;28.35;;;18.10;;
28627;SDS011;15815;46.760;19.604;2022-11-18T10:00:32;28.70;;;18.13;;
28627;SDS011;15815;46.760;19.604;2022-11-18T10:03:10;30.45;;;20.33;;
28627;SDS011;15815;46.760;19.604;2022-11-18T10:13:39;28.20;;;18.85;;
28627;SDS011;15815;46.760;19.604;2022-11-18T10:16:21;30.60;;;19.08;;
28627;SDS011;15815;46.760;19.604;2022-11-18T10:24:03;27.05;;;19.10;;
28627;SDS011;15815;46.760;19.604;2022-11-18T10:26:37;29.73;;;18.33;;
28627;SDS011;15815;46.760;19.604;2022-11-18T10:29:08;28.85;;;18.95;;
28627;SDS011;15815;46.760;19.604;2022-11-18T10:34:19;27.95;;;18.48;;
28627;SDS011;15815;46.760;19.604;2022-11-18T10:36:58;33.78;;;20.13;;
28627;SDS011;15815;46.760;19.604;2022-11-18T10:39:31;35.35;;;20.73;;
28627;SDS011;15815;46.760;19.604;2022-11-18T10:42:13;28.05;;;18.58;;
28627;SDS011;15815;46.760;19.604;2022-11-18T10:50:43;29.40;;;19.20;;
28627;SDS011;15815;46.760;19.604;2022-11-18T10:53:32;26.27;;;17.98;;
28627;SDS011;15815;46.760;19.604;2022-11-18T10:56:03;25.30;;;17.38;;
28627;SDS011;15815;46.760;19.604;2022-11-18T11:06:30;24.98;;;17.80;;
28627;SDS011;15815;46.760;19.604;2022-11-18T11:09:04;28.67;;;18.15;;
28627;SDS011;15815;46.760;19.604;2022-11-18T11:11:55;25.17;;;17.02;;
28627;SDS011;15815;46.760;19.604;2022-11-18T11:17:17;23.35;;;16.75;;
28627;SDS011;15815;46.760;19.604;2022-11-18T11:24:54;27.08;;;17.60;;
28627;SDS011;15815;46.760;19.604;2022-11-18T11:27:31;31.95;;;20.55;;
28627;SDS011;15815;46.760;19.604;2022-11-18T11:35:20;68.38;;;42.65;;
28627;SDS011;15815;46.760;19.604;2022-11-18T11:43:13;44.05;;;29.80;;
28627;SDS011;15815;46.760;19.604;2022-11-18T11:51:06;35.58;;;25.17;;
28627;SDS011;15815;46.760;19.604;2022-11-18T11:59:00;39.00;;;25.42;;
28627;SDS011;15815;46.760;19.604;2022-11-18T12:06:31;34.25;;;21.10;;
28627;SDS011;15815;46.760;19.604;2022-11-18T12:09:10;32.97;;;21.42;;
28627;SDS011;15815;46.760;19.604;2022-11-18T12:12:05;31.33;;;22.30;;
28627;SDS011;15815;46.760;19.604;2022-11-18T12:14:56;28.52;;;18.55;;
28627;SDS011;15815;46.760;19.604;2022-11-18T12:17:39;29.92;;;20.50;;
28627;SDS011;15815;46.760;19.604;2022-11-18T12:23:19;30.40;;;19.95;;
28627;SDS011;15815;46.760;19.604;2022-11-18T12:33:44;35.88;;;24.25;;
28627;SDS011;15815;46.760;19.604;2022-11-18T12:38:54;37.00;;;23.77;;
28627;SDS011;15815;46.760;19.604;2022-11-18T12:44:25;43.13;;;28.13;;
28627;SDS011;15815;46.760;19.604;2022-11-18T12:51:46;40.38;;;26.70;;
28627;SDS011;15815;46.760;19.604;2022-11-18T12:54:19;30.70;;;19.35;;
28627;SDS011;15815;46.760;19.604;2022-11-18T12:56:49;42.08;;;27.23;;
28627;SDS011;15815;46.760;19.604;2022-11-18T12:59:16;37.10;;;25.38;;
28627;SDS011;15815;46.760;19.604;2022-11-18T13:01:50;36.70;;;25.10;;
28627;SDS011;15815;46.760;19.604;2022-11-18T13:04:26;22.65;;;17.05;;
28627;SDS011;15815;46.760;19.604;2022-11-18T13:06:51;26.65;;;19.65;;
28627;SDS011;15815;46.760;19.604;2022-11-18T13:09:23;24.63;;;17.88;;
28627;SDS011;15815;46.760;19.604;2022-11-18T13:11:50;27.20;;;19.73;;
28627;SDS011;15815;46.760;19.604;2022-11-18T13:14:24;27.08;;;19.40;;
28627;SDS011;15815;46.760;19.604;2022-11-18T13:20:22;28.85;;;19.55;;
28627;SDS011;15815;46.760;19.604;2022-11-18T13:31:20;30.70;;;21.02;;
28627;SDS011;15815;46.760;19.604;2022-11-18T13:33:52;41.63;;;28.60;;
28627;SDS011;15815;46.760;19.604;2022-11-18T13:36:21;31.88;;;22.95;;
28627;SDS011;15815;46.760;19.604;2022-11-18T13:39:02;34.05;;;23.23;;
28627;SDS011;15815;46.760;19.604;2022-11-18T13:41:30;43.67;;;29.42;;
28627;SDS011;15815;46.760;19.604;2022-11-18T13:44:11;45.15;;;30.38;;
28627;SDS011;15815;46.760;19.604;2022-11-18T13:46:52;46.42;;;32.28;;
28627;SDS011;15815;46.760;19.604;2022-11-18T14:36:41;31.83;;;22.02;;
28627;SDS011;15815;46.760;19.604;2022-11-18T14:39:29;41.65;;;30.70;;
28627;SDS011;15815;46.760;19.604;2022-11-18T14:41:58;28.92;;;22.10;;
28627;SDS011;15815;46.760;19.604;2022-11-18T14:49:34;70.22;;;53.70;;
28627;SDS011;15815;46.760;19.604;2022-11-18T14:52:19;180.35;;;94.38;;
28627;SDS011;15815;46.760;19.604;2022-11-18T14:54:45;57.67;;;41.07;;
28627;SDS011;15815;46.760;19.604;2022-11-18T14:57:11;147.07;;;110.38;;
28627;SDS011;15815;46.760;19.604;2022-11-18T14:59:41;163.63;;;134.50;;
28627;SDS011;15815;46.760;19.604;2022-11-18T15:04:38;34.28;;;25.55;;
28627;SDS011;15815;46.760;19.604;2022-11-18T15:07:03;40.63;;;31.17;;
28627;SDS011;15815;46.760;19.604;2022-11-18T15:09:29;39.58;;;28.23;;
28627;SDS011;15815;46.760;19.604;2022-11-18T15:11:54;45.17;;;30.23;;
28627;SDS011;15815;46.760;19.604;2022-11-18T15:14:20;47.97;;;32.13;;
28627;SDS011;15815;46.760;19.604;2022-11-18T15:19:20;134.10;;;70.25;;
28627;SDS011;15815;46.760;19.604;2022-11-18T15:21:51;78.53;;;44.03;;
28627;SDS011;15815;46.760;19.604;2022-11-18T15:24:20;47.50;;;31.00;;
28627;SDS011;15815;46.760;19.604;2022-11-18T15:26:58;117.95;;;59.95;;
28627;SDS011;15815;46.760;19.604;2022-11-18T15:32:11;71.40;;;43.30;;
28627;SDS011;15815;46.760;19.604;2022-11-18T15:37:37;550.20;;;327.08;;
28627;SDS011;15815;46.760;19.604;2022-11-18T15:40:03;139.13;;;77.68;;
28627;SDS011;15815;46.760;19.604;2022-11-18T15:42:28;169.95;;;99.53;;
28627;SDS011;15815;46.760;19.604;2022-11-18T15:44:54;54.45;;;36.55;;
28627;SDS011;15815;46.760;19.604;2022-11-18T15:47:19;91.88;;;58.33;;
28627;SDS011;15815;46.760;19.604;2022-11-18T15:49:44;85.35;;;56.45;;
28627;SDS011;15815;46.760;19.604;2022-11-18T15:52:10;84.50;;;54.92;;
28627;SDS011;15815;46.760;19.604;2022-11-18T15:54:36;59.53;;;37.90;;
28627;SDS011;15815;46.760;19.604;2022-11-18T15:57:02;48.28;;;31.10;;
28627;SDS011;15815;46.760;19.604;2022-11-18T15:59:27;50.97;;;32.30;;
28627;SDS011;15815;46.760;19.604;2022-11-18T16:01:53;52.88;;;33.58;;
28627;SDS011;15815;46.760;19.604;2022-11-18T16:04:19;54.13;;;35.20;;
28627;SDS011;15815;46.760;19.604;2022-11-18T16:06:45;29.67;;;20.92;;
28627;SDS011;15815;46.760;19.604;2022-11-18T16:09:11;54.40;;;34.90;;
28627;SDS011;15815;46.760;19.604;2022-11-18T16:11:40;25.30;;;18.90;;
28627;SDS011;15815;46.760;19.604;2022-11-18T16:14:24;25.65;;;17.13;;
28627;SDS011;15815;46.760;19.604;2022-11-18T16:16:50;46.85;;;34.80;;
28627;SDS011;15815;46.760;19.604;2022-11-18T16:19:19;21.33;;;14.00;;
28627;SDS011;15815;46.760;19.604;2022-11-18T16:22:03;25.05;;;18.25;;
28627;SDS011;15815;46.760;19.604;2022-11-18T16:24:29;21.27;;;14.52;;
28627;SDS011;15815;46.760;19.604;2022-11-18T16:26:54;31.35;;;22.40;;
28627;SDS011;15815;46.760;19.604;2022-11-18T16:29:20;9.30;;;6.30;;
28627;SDS011;15815;46.760;19.604;2022-11-18T16:31:48;13.77;;;8.93;;
28627;SDS011;15815;46.760;19.604;2022-11-18T16:34:20;9.03;;;4.90;;
28627;SDS011;15815;46.760;19.604;2022-11-18T16:36:50;17.65;;;11.32;;
28627;SDS011;15815;46.760;19.604;2022-11-18T16:39:18;29.83;;;20.30;;
28627;SDS011;15815;46.760;19.604;2022-11-18T16:41:49;20.30;;;12.38;;
28627;SDS011;15815;46.760;19.604;2022-11-18T16:44:19;27.98;;;17.48;;
28627;SDS011;15815;46.760;19.604;2022-11-18T16:46:46;101.10;;;62.75;;
28627;SDS011;15815;46.760;19.604;2022-11-18T16:49:16;110.55;;;70.70;;
28627;SDS011;15815;46.760;19.604;2022-11-18T16:51:47;22.58;;;14.02;;
28627;SDS011;15815;46.760;19.604;2022-11-18T16:54:17;20.35;;;11.95;;
28627;SDS011;15815;46.760;19.604;2022-11-18T16:56:52;41.60;;;29.45;;
28627;SDS011;15815;46.760;19.604;2022-11-18T16:59:20;34.25;;;25.13;;
28627;SDS011;15815;46.760;19.604;2022-11-18T17:09:28;22.95;;;15.57;;
28627;SDS011;15815;46.760;19.604;2022-11-18T17:11:54;27.15;;;17.55;;
28627;SDS011;15815;46.760;19.604;2022-11-18T17:14:22;31.13;;;20.63;;
28627;SDS011;15815;46.760;19.604;2022-11-18T17:16:49;35.08;;;23.40;;
28627;SDS011;15815;46.760;19.604;2022-11-18T17:19:17;34.95;;;23.45;;
28627;SDS011;15815;46.760;19.604;2022-11-18T17:21:43;36.17;;;22.70;;
28627;SDS011;15815;46.760;19.604;2022-11-18T17:24:10;19.10;;;14.43;;
28627;SDS011;15815;46.760;19.604;2022-11-18T17:42:34;48.38;;;27.48;;
28627;SDS011;15815;46.760;19.604;2022-11-18T17:45:03;34.37;;;26.73;;
28627;SDS011;15815;46.760;19.604;2022-11-18T17:47:29;16.88;;;10.45;;
28627;SDS011;15815;46.760;19.604;2022-11-18T17:49:55;40.47;;;21.92;;
28627;SDS011;15815;46.760;19.604;2022-11-18T18:18:08;15.25;;;10.40;;
28627;SDS011;15815;46.760;19.604;2022-11-18T18:20:41;12.60;;;9.35;;
28627;SDS011;15815;46.760;19.604;2022-11-18T18:23:07;16.10;;;10.05;;
28627;SDS011;15815;46.760;19.604;2022-11-18T18:25:34;13.40;;;10.88;;
28627;SDS011;15815;46.760;19.604;2022-11-18T18:28:00;15.65;;;13.18;;